createdAt,value
2023-10-29T00:00:26.797Z,12.30
2023-10-29T00:02:55.544Z,12.30
2023-10-29T00:05:24.125Z,12.30
2023-10-29T00:07:54.058Z,12.20
2023-10-29T00:10:23.273Z,12.20
2023-10-29T00:12:51.640Z,12.20
2023-10-29T00:15:20.385Z,12.20
2023-10-29T00:17:50.289Z,12.10
2023-10-29T00:20:18.767Z,12.10
2023-10-29T00:22:47.295Z,12.10
2023-10-29T00:25:17.233Z,12.00
2023-10-29T00:27:47.273Z,12.00
2023-10-29T00:30:16.013Z,11.90
2023-10-29T00:32:44.859Z,12.00
2023-10-29T00:35:13.269Z,12.10
2023-10-29T00:37:41.796Z,12.20
2023-10-29T00:40:11.183Z,12.10
2023-10-29T00:42:41.144Z,12.10
2023-10-29T00:45:10.807Z,12.00
2023-10-29T00:47:39.614Z,12.10
2023-10-29T00:50:09.236Z,12.10
2023-10-29T00:52:37.623Z,12.20
2023-10-29T00:55:06.642Z,12.20
2023-10-29T00:57:35.455Z,12.20
2023-10-29T01:00:07.752Z,12.30
2023-10-29T01:02:37.399Z,12.40
2023-10-29T01:05:06.827Z,12.40
2023-10-29T01:07:35.437Z,12.40
2023-10-29T01:10:03.869Z,12.50
2023-10-29T01:12:33.492Z,12.50
2023-10-29T01:15:02.980Z,12.50
2023-10-29T01:17:35.728Z,12.60
2023-10-29T01:20:05.339Z,12.60
2023-10-29T01:22:34.977Z,12.60
2023-10-29T01:25:08.412Z,12.60
2023-10-29T01:27:37.244Z,12.50
2023-10-29T01:30:07.270Z,12.50
2023-10-29T01:32:37.478Z,12.40
2023-10-29T01:35:06.317Z,12.50
2023-10-29T01:37:35.730Z,12.50
2023-10-29T01:40:04.918Z,12.50
2023-10-29T01:42:33.684Z,12.50
2023-10-29T01:45:02.337Z,12.50
2023-10-29T01:47:33.885Z,12.50
2023-10-29T01:50:04.109Z,12.60
2023-10-29T01:52:32.878Z,12.60
2023-10-29T01:55:01.230Z,12.50
2023-10-29T01:57:30.530Z,12.50
2023-10-29T02:00:00.754Z,12.50
2023-10-29T02:02:30.920Z,12.40
2023-10-29T02:04:59.280Z,12.40
2023-10-29T02:07:28.995Z,12.40
2023-10-29T02:09:57.350Z,12.40
2023-10-29T02:12:26.199Z,12.30
2023-10-29T02:14:56.302Z,12.10
2023-10-29T02:17:26.620Z,11.90
2023-10-29T02:19:56.510Z,11.90
2023-10-29T02:22:26.722Z,11.90
2023-10-29T02:24:55.048Z,11.90
2023-10-29T02:27:24.213Z,11.90
2023-10-29T02:29:53.066Z,11.90
2023-10-29T02:32:21.398Z,11.70
2023-10-29T02:34:50.005Z,11.70
2023-10-29T02:37:18.521Z,11.60
2023-10-29T02:39:49.665Z,11.40
2023-10-29T02:42:18.596Z,11.30
2023-10-29T02:44:47.447Z,11.30
2023-10-29T02:47:15.970Z,11.40
2023-10-29T02:49:44.735Z,11.30
2023-10-29T02:52:13.070Z,11.40
2023-10-29T02:54:41.775Z,11.50
2023-10-29T02:57:11.894Z,11.50
2023-10-29T02:59:40.671Z,11.40
2023-10-29T03:02:09.315Z,11.50
2023-10-29T03:04:37.613Z,11.50
2023-10-29T03:07:06.130Z,11.60
2023-10-29T03:09:34.662Z,11.70
2023-10-29T03:12:03.123Z,11.70
2023-10-29T03:14:32.801Z,11.80
2023-10-29T03:17:01.550Z,11.70
2023-10-29T03:19:30.427Z,11.70
2023-10-29T03:21:59.387Z,11.70
2023-10-29T03:24:27.760Z,11.70
2023-10-29T03:26:56.341Z,11.70
2023-10-29T03:29:25.114Z,11.70
2023-10-29T03:31:55.466Z,11.60
2023-10-29T03:34:24.094Z,11.60
2023-10-29T03:36:53.422Z,11.70
2023-10-29T03:39:22.048Z,11.70
2023-10-29T03:41:50.669Z,11.80
2023-10-29T03:44:19.025Z,11.80
2023-10-29T03:46:52.562Z,11.90
2023-10-29T03:49:22.291Z,11.60
2023-10-29T03:51:50.955Z,11.30
2023-10-29T03:54:21.406Z,11.10
2023-10-29T03:56:49.845Z,11.10
2023-10-29T03:59:18.397Z,11.20
2023-10-29T04:01:46.997Z,11.30
2023-10-29T04:04:16.470Z,11.40
2023-10-29T04:06:46.684Z,11.50
2023-10-29T04:09:15.134Z,11.50
2023-10-29T04:11:46.357Z,11.60
2023-10-29T04:14:15.321Z,11.60
2023-10-29T04:16:43.836Z,11.70
2023-10-29T04:19:12.180Z,11.70
2023-10-29T04:21:40.977Z,11.70
2023-10-29T04:24:12.310Z,11.70
2023-10-29T04:26:40.977Z,11.70
2023-10-29T04:29:09.357Z,11.80
2023-10-29T04:31:37.985Z,11.80
2023-10-29T04:34:06.684Z,11.90
2023-10-29T04:36:35.126Z,11.90
2023-10-29T04:39:04.083Z,11.90
2023-10-29T04:41:34.113Z,11.90
2023-10-29T04:44:04.329Z,11.90
2023-10-29T04:46:32.717Z,11.90
2023-10-29T04:49:01.282Z,12.00
2023-10-29T04:51:31.072Z,12.00
2023-10-29T04:54:01.040Z,12.00
2023-10-29T04:56:30.017Z,12.00
2023-10-29T04:58:59.825Z,12.00
2023-10-29T05:01:28.735Z,12.10
2023-10-29T05:03:57.291Z,12.00
2023-10-29T05:06:25.851Z,11.90
2023-10-29T05:08:55.283Z,11.90
2023-10-29T05:11:23.785Z,11.80
2023-10-29T05:13:52.195Z,11.70
2023-10-29T05:16:22.360Z,11.60
2023-10-29T05:18:50.938Z,11.50
2023-10-29T05:21:20.544Z,11.50
2023-10-29T05:23:49.567Z,11.50
2023-10-29T05:26:19.499Z,11.50
2023-10-29T05:28:48.897Z,11.50
2023-10-29T05:31:17.578Z,11.40
2023-10-29T05:33:47.533Z,11.40
2023-10-29T05:36:15.926Z,11.40
2023-10-29T05:38:44.831Z,11.40
2023-10-29T05:41:13.387Z,11.30
2023-10-29T05:43:41.939Z,11.30
2023-10-29T05:46:13.564Z,11.40
2023-10-29T05:48:42.807Z,11.40
2023-10-29T05:51:14.421Z,11.40
2023-10-29T05:53:42.884Z,11.40
2023-10-29T05:56:11.226Z,11.30
2023-10-29T05:58:39.937Z,11.30
2023-10-29T06:01:08.835Z,11.30
2023-10-29T06:03:37.630Z,11.20
2023-10-29T06:06:06.988Z,11.20
2023-10-29T06:08:36.714Z,11.20
2023-10-29T06:11:06.500Z,11.20
2023-10-29T06:13:34.984Z,11.20
2023-10-29T06:16:09.228Z,11.20
2023-10-29T06:18:37.968Z,11.10
2023-10-29T06:21:06.439Z,11.10
2023-10-29T06:23:38.024Z,11.10
2023-10-29T06:26:09.497Z,11.10
2023-10-29T06:28:38.321Z,11.10
2023-10-29T06:31:06.753Z,11.10
2023-10-29T06:33:38.274Z,11.20
2023-10-29T06:36:07.157Z,11.20
2023-10-29T06:38:37.374Z,11.20
2023-10-29T06:41:05.830Z,11.20
2023-10-29T06:43:36.055Z,11.30
2023-10-29T06:46:05.249Z,11.30
2023-10-29T06:48:33.936Z,11.30
2023-10-29T06:51:02.288Z,11.30
2023-10-29T06:53:30.758Z,11.40
2023-10-29T06:56:04.239Z,11.40
2023-10-29T06:58:33.421Z,11.40
2023-10-29T07:01:06.041Z,11.40
2023-10-29T07:03:35.087Z,11.50
2023-10-29T07:06:08.442Z,11.60
2023-10-29T07:08:38.396Z,11.60
2023-10-29T07:11:08.554Z,11.70
2023-10-29T07:13:37.599Z,11.70
2023-10-29T07:16:06.589Z,11.80
2023-10-29T07:18:36.832Z,11.90
2023-10-29T07:21:06.736Z,11.90
2023-10-29T07:23:35.203Z,12.00
2023-10-29T07:26:04.055Z,12.10
2023-10-29T07:28:35.973Z,12.10
2023-10-29T07:31:05.392Z,12.20
2023-10-29T07:33:33.797Z,12.30
2023-10-29T07:36:04.974Z,12.40
2023-10-29T07:38:33.514Z,12.40
2023-10-29T07:41:01.868Z,12.50
2023-10-29T07:43:30.284Z,12.50
2023-10-29T07:46:04.913Z,12.60
2023-10-29T07:48:33.276Z,12.60
2023-10-29T07:51:02.124Z,12.60
2023-10-29T07:53:31.874Z,12.70
2023-10-29T07:56:09.223Z,12.70
2023-10-29T07:58:37.895Z,12.80
2023-10-29T08:01:14.065Z,12.90
2023-10-29T08:03:43.149Z,13.10
2023-10-29T08:06:12.494Z,13.20
2023-10-29T08:08:41.925Z,13.30
2023-10-29T08:11:19.347Z,13.50
2023-10-29T08:13:48.838Z,13.60
2023-10-29T08:16:19.813Z,13.60
2023-10-29T08:18:48.637Z,13.70
2023-10-29T08:21:18.526Z,13.70
2023-10-29T08:23:47.085Z,13.80
2023-10-29T08:26:16.068Z,13.90
2023-10-29T08:28:44.784Z,13.90
2023-10-29T08:31:13.592Z,14.00
2023-10-29T08:33:43.501Z,14.10
2023-10-29T08:36:12.115Z,14.20
2023-10-29T08:38:40.433Z,14.30
2023-10-29T08:41:15.061Z,14.40
2023-10-29T08:43:43.902Z,14.50
2023-10-29T08:46:12.773Z,14.50
2023-10-29T08:48:43.026Z,14.60
2023-10-29T08:51:13.119Z,14.40
2023-10-29T08:53:42.059Z,14.30
2023-10-29T08:56:10.673Z,14.30
2023-10-29T08:58:39.134Z,14.30
2023-10-29T09:01:12.838Z,14.40
2023-10-29T09:03:42.993Z,14.40
2023-10-29T09:06:14.009Z,14.40
2023-10-29T09:08:42.732Z,14.50
2023-10-29T09:11:15.491Z,14.60
2023-10-29T09:13:44.270Z,14.60
2023-10-29T09:16:12.741Z,14.60
2023-10-29T09:18:43.073Z,14.70
2023-10-29T09:21:12.570Z,14.80
2023-10-29T09:23:40.986Z,14.70
2023-10-29T09:26:10.328Z,14.80
2023-10-29T09:28:39.542Z,14.80
2023-10-29T09:31:09.636Z,14.90
2023-10-29T09:33:39.697Z,15.00
2023-10-29T09:36:10.006Z,15.20
2023-10-29T09:38:38.476Z,15.30
2023-10-29T09:41:08.137Z,15.30
2023-10-29T09:43:41.091Z,15.50
2023-10-29T09:46:11.634Z,15.60
2023-10-29T09:48:40.970Z,15.70
2023-10-29T09:51:10.783Z,15.90
2023-10-29T09:53:40.693Z,16.10
2023-10-29T09:56:10.809Z,16.20
2023-10-29T09:58:39.909Z,16.60
2023-10-29T10:01:09.570Z,16.80
2023-10-29T10:03:39.361Z,17.10
2023-10-29T10:06:10.051Z,17.60
2023-10-29T10:08:38.759Z,18.10
2023-10-29T10:11:20.837Z,18.60
2023-10-29T10:13:49.445Z,19.10
2023-10-29T10:16:21.040Z,19.80
2023-10-29T10:18:54.812Z,20.20
2023-10-29T10:21:26.111Z,20.50
2023-10-29T10:23:56.570Z,20.70
2023-10-29T10:26:35.520Z,20.70
2023-10-29T10:29:06.258Z,21.10
2023-10-29T10:31:36.774Z,21.30
2023-10-29T10:34:12.487Z,21.10
2023-10-29T10:36:43.104Z,20.40
2023-10-29T10:39:12.964Z,20.50
2023-10-29T10:41:43.699Z,20.60
2023-10-29T10:44:13.981Z,20.40
2023-10-29T10:46:48.979Z,20.80
2023-10-29T10:49:18.546Z,21.30
2023-10-29T10:51:49.912Z,20.90
2023-10-29T10:54:19.865Z,20.80
2023-10-29T10:56:49.108Z,20.50
2023-10-29T10:59:17.690Z,19.90
2023-10-29T11:01:46.883Z,19.40
2023-10-29T11:04:16.151Z,19.00
2023-10-29T11:06:45.861Z,18.80
2023-10-29T11:09:18.530Z,18.70
2023-10-29T11:11:51.464Z,18.70
2023-10-29T11:14:20.940Z,18.70
2023-10-29T11:16:51.465Z,18.80
2023-10-29T11:19:41.031Z,18.70
2023-10-29T11:22:20.333Z,18.60
2023-10-29T11:25:31.712Z,18.60
2023-10-29T11:28:00.809Z,18.70
2023-10-29T11:30:29.762Z,18.70
2023-10-29T11:33:19.509Z,18.70
2023-10-29T11:35:48.635Z,18.80
2023-10-29T11:38:31.821Z,18.90
2023-10-29T11:41:22.238Z,18.90
2023-10-29T11:44:23.994Z,18.90
2023-10-29T11:47:08.789Z,18.90
2023-10-29T11:50:12.450Z,18.80
2023-10-29T11:52:47.151Z,18.80
2023-10-29T11:55:19.463Z,18.70
2023-10-29T11:57:52.178Z,18.70
2023-10-29T12:00:21.895Z,18.70
2023-10-29T12:02:50.767Z,18.60
2023-10-29T12:05:19.183Z,18.60
2023-10-29T12:07:47.821Z,18.50
2023-10-29T12:10:16.489Z,18.50
2023-10-29T12:12:55.218Z,18.40
2023-10-29T12:15:25.564Z,18.40
2023-10-29T12:17:54.729Z,18.40
2023-10-29T12:20:24.725Z,18.50
2023-10-29T12:22:59.423Z,18.60
2023-10-29T12:25:28.814Z,18.80
2023-10-29T12:28:00.628Z,18.80
2023-10-29T12:30:37.225Z,18.90
2023-10-29T12:33:24.127Z,18.90
2023-10-29T12:35:53.929Z,19.20
2023-10-29T12:38:24.770Z,19.50
2023-10-29T12:41:12.683Z,20.00
2023-10-29T12:43:45.334Z,20.40
2023-10-29T12:46:15.625Z,20.60
2023-10-29T12:49:01.610Z,20.60
2023-10-29T12:51:32.215Z,20.70
2023-10-29T12:54:12.556Z,20.90
2023-10-29T12:56:52.480Z,21.40
2023-10-29T12:59:22.677Z,22.10
2023-10-29T13:01:55.474Z,22.70
2023-10-29T13:04:25.246Z,23.50
2023-10-29T13:06:55.162Z,24.30
2023-10-29T13:09:24.127Z,24.60
2023-10-29T13:11:53.695Z,24.60
2023-10-29T13:14:24.559Z,24.40
2023-10-29T13:16:54.504Z,24.30
2023-10-29T13:19:23.938Z,24.10
2023-10-29T13:21:53.797Z,24.00
2023-10-29T13:24:22.656Z,23.90
2023-10-29T13:26:52.421Z,23.40
2023-10-29T13:29:21.775Z,22.70
2023-10-29T13:31:51.445Z,22.20
2023-10-29T13:34:20.217Z,21.70
2023-10-29T13:36:49.250Z,21.30
2023-10-29T13:39:20.242Z,21.10
2023-10-29T13:41:49.956Z,21.00
2023-10-29T13:44:19.015Z,21.20
2023-10-29T13:46:48.339Z,21.40
2023-10-29T13:49:18.196Z,21.50
2023-10-29T13:51:47.961Z,21.50
2023-10-29T13:54:16.762Z,21.50
2023-10-29T13:56:45.338Z,21.50
2023-10-29T13:59:15.432Z,21.50
2023-10-29T14:01:44.128Z,21.50
2023-10-29T14:04:12.656Z,21.60
2023-10-29T14:06:42.956Z,21.50
2023-10-29T14:09:11.473Z,21.50
2023-10-29T14:11:39.886Z,21.30
2023-10-29T14:14:08.947Z,21.00
2023-10-29T14:16:38.655Z,20.90
2023-10-29T14:19:08.245Z,20.70
2023-10-29T14:21:37.416Z,20.50
2023-10-29T14:24:09.149Z,20.30
2023-10-29T14:26:38.426Z,20.10
2023-10-29T14:29:07.152Z,19.90
2023-10-29T14:31:36.911Z,19.80
2023-10-29T14:34:06.158Z,19.60
2023-10-29T14:36:34.587Z,19.50
2023-10-29T14:39:04.555Z,19.40
2023-10-29T14:41:34.626Z,19.30
2023-10-29T14:44:04.151Z,19.20
2023-10-29T14:46:33.009Z,19.10
2023-10-29T14:49:01.751Z,19.00
2023-10-29T14:51:30.413Z,18.90
2023-10-29T14:54:00.522Z,18.80
2023-10-29T14:56:29.011Z,18.60
2023-10-29T14:58:59.308Z,18.50
2023-10-29T15:01:28.550Z,18.40
2023-10-29T15:04:00.581Z,18.30
2023-10-29T15:06:42.592Z,18.10
2023-10-29T15:09:12.120Z,18.10
2023-10-29T15:11:40.610Z,18.00
2023-10-29T15:14:14.751Z,18.00
2023-10-29T15:16:44.046Z,17.90
2023-10-29T15:19:22.129Z,17.80
2023-10-29T15:21:58.769Z,17.80
2023-10-29T15:24:27.445Z,17.70
2023-10-29T15:26:56.044Z,17.70
2023-10-29T15:29:27.200Z,17.60
2023-10-29T15:31:56.406Z,17.50
2023-10-29T15:34:25.162Z,17.40
2023-10-29T15:36:54.652Z,17.30
2023-10-29T15:39:23.824Z,17.20
2023-10-29T15:41:53.389Z,17.20
2023-10-29T15:44:22.090Z,17.10
2023-10-29T15:46:52.091Z,17.10
2023-10-29T15:49:24.443Z,17.00
2023-10-29T15:51:53.473Z,17.10
2023-10-29T15:54:21.970Z,17.00
2023-10-29T15:56:52.028Z,17.00
2023-10-29T15:59:21.502Z,16.90
2023-10-29T16:01:51.686Z,16.90
2023-10-29T16:04:21.317Z,16.80
2023-10-29T16:06:50.323Z,16.70
2023-10-29T16:09:19.231Z,16.70
2023-10-29T16:11:48.964Z,16.60
2023-10-29T16:14:17.451Z,16.60
2023-10-29T16:16:45.853Z,16.50
2023-10-29T16:19:15.629Z,16.50
2023-10-29T16:21:45.606Z,16.40
2023-10-29T16:24:14.895Z,16.40
2023-10-29T16:26:43.589Z,16.30
2023-10-29T16:29:13.878Z,16.30
2023-10-29T16:31:42.274Z,16.30
2023-10-29T16:34:10.712Z,16.20
2023-10-29T16:36:40.857Z,16.20
2023-10-29T16:39:09.265Z,16.20
2023-10-29T16:41:38.092Z,16.10
2023-10-29T16:44:06.947Z,16.10
2023-10-29T16:46:36.049Z,16.00
2023-10-29T16:49:05.697Z,16.00
2023-10-29T16:51:34.424Z,15.90
2023-10-29T16:54:05.220Z,15.90
2023-10-29T16:56:33.995Z,15.90
2023-10-29T16:59:03.009Z,15.80
2023-10-29T17:01:32.238Z,15.80
2023-10-29T17:04:01.245Z,15.80
2023-10-29T17:06:30.007Z,15.80
2023-10-29T17:08:59.769Z,15.80
2023-10-29T17:11:31.028Z,15.70
2023-10-29T17:13:59.765Z,15.60
2023-10-29T17:16:28.085Z,15.60
2023-10-29T17:18:56.924Z,15.60
2023-10-29T17:21:25.285Z,15.60
2023-10-29T17:23:53.896Z,15.60
2023-10-29T17:26:22.634Z,15.60
2023-10-29T17:28:52.933Z,15.60
2023-10-29T17:31:21.496Z,15.60
2023-10-29T17:33:50.780Z,15.60
2023-10-29T17:36:20.250Z,15.60
2023-10-29T17:38:49.075Z,15.60
2023-10-29T17:41:18.799Z,15.60
2023-10-29T17:43:48.182Z,15.50
2023-10-29T17:46:20.842Z,15.50
2023-10-29T17:48:52.897Z,15.50
2023-10-29T17:51:21.577Z,15.40
2023-10-29T17:53:52.194Z,15.30
2023-10-29T17:56:20.983Z,15.30
2023-10-29T17:58:49.897Z,15.20
2023-10-29T18:01:21.258Z,15.20
2023-10-29T18:03:54.894Z,15.10
2023-10-29T18:06:26.308Z,15.10
2023-10-29T18:08:57.231Z,15.10
2023-10-29T18:11:27.566Z,15.10
2023-10-29T18:13:56.623Z,15.00
2023-10-29T18:16:27.107Z,15.10
2023-10-29T18:18:55.442Z,14.90
2023-10-29T18:21:23.764Z,15.00
2023-10-29T18:23:52.631Z,14.90
2023-10-29T18:26:22.124Z,14.90
2023-10-29T18:28:50.692Z,14.90
2023-10-29T18:31:19.518Z,14.90
2023-10-29T18:33:49.534Z,14.70
2023-10-29T18:36:26.657Z,14.50
2023-10-29T18:38:57.764Z,14.40
2023-10-29T18:41:27.199Z,14.30
2023-10-29T18:43:58.555Z,14.20
2023-10-29T18:46:27.599Z,14.10
2023-10-29T18:48:57.691Z,14.10
2023-10-29T18:51:26.237Z,14.00
2023-10-29T18:53:54.953Z,14.00
2023-10-29T18:56:24.068Z,14.00
2023-10-29T18:58:53.306Z,14.00
2023-10-29T19:01:22.310Z,13.90
2023-10-29T19:03:50.996Z,14.00
2023-10-29T19:06:21.076Z,14.00
2023-10-29T19:08:50.975Z,13.90
2023-10-29T19:11:19.625Z,13.90
2023-10-29T19:13:48.085Z,13.70
2023-10-29T19:16:16.955Z,13.50
2023-10-29T19:18:45.571Z,13.40
2023-10-29T19:21:14.815Z,13.30
2023-10-29T19:23:44.722Z,13.20
2023-10-29T19:26:14.388Z,13.30
2023-10-29T19:28:43.163Z,13.40
2023-10-29T19:31:23.923Z,13.50
2023-10-29T19:33:57.451Z,13.60
2023-10-29T19:36:26.062Z,13.30
2023-10-29T19:38:59.172Z,13.20
2023-10-29T19:41:27.532Z,13.10
2023-10-29T19:43:55.929Z,13.10
2023-10-29T19:46:24.490Z,13.00
2023-10-29T19:48:54.600Z,13.00
2023-10-29T19:51:24.381Z,13.00
2023-10-29T19:53:53.005Z,13.00
2023-10-29T19:56:23.837Z,13.10
2023-10-29T19:58:52.105Z,13.10
2023-10-29T20:01:21.378Z,13.10
2023-10-29T20:03:50.484Z,13.20
2023-10-29T20:06:19.366Z,13.20
2023-10-29T20:08:48.665Z,13.30
2023-10-29T20:11:17.030Z,13.30
2023-10-29T20:13:50.330Z,13.40
2023-10-29T20:16:18.752Z,13.50
2023-10-29T20:18:48.547Z,13.50
2023-10-29T20:21:20.284Z,13.50
2023-10-29T20:24:27.876Z,13.60
2023-10-29T20:27:03.765Z,13.70
2023-10-29T20:29:33.609Z,13.70
2023-10-29T20:32:04.091Z,13.70
2023-10-29T20:34:33.020Z,13.70
2023-10-29T20:37:01.562Z,13.70
2023-10-29T20:39:30.062Z,13.70
2023-10-29T20:42:02.108Z,13.80
2023-10-29T20:44:32.088Z,13.80
2023-10-29T20:47:02.399Z,13.90
2023-10-29T20:49:30.973Z,14.00
2023-10-29T20:51:59.713Z,14.00
2023-10-29T20:54:28.210Z,14.10
2023-10-29T20:56:56.777Z,14.10
2023-10-29T20:59:26.245Z,14.00
2023-10-29T21:01:54.695Z,14.00
2023-10-29T21:04:24.771Z,13.90
2023-10-29T21:06:53.532Z,13.80
2023-10-29T21:09:21.898Z,13.70
2023-10-29T21:11:53.040Z,13.70
2023-10-29T21:14:21.642Z,13.80
2023-10-29T21:16:50.222Z,13.90
2023-10-29T21:19:22.073Z,14.00
2023-10-29T21:21:56.685Z,14.00
2023-10-29T21:24:25.776Z,14.10
2023-10-29T21:26:56.247Z,14.20
2023-10-29T21:29:24.909Z,14.20
2023-10-29T21:31:53.825Z,14.30
2023-10-29T21:34:22.310Z,14.30
2023-10-29T21:36:50.720Z,14.30
2023-10-29T21:39:20.488Z,14.30
2023-10-29T21:41:49.429Z,14.30
2023-10-29T21:44:17.971Z,14.30
2023-10-29T21:46:48.069Z,14.30
2023-10-29T21:49:16.485Z,14.40
2023-10-29T21:51:44.881Z,14.40
2023-10-29T21:54:13.707Z,14.40
2023-10-29T21:56:43.441Z,14.40
2023-10-29T21:59:11.929Z,14.50
2023-10-29T22:01:40.424Z,14.40
2023-10-29T22:04:09.192Z,14.50
2023-10-29T22:06:37.749Z,14.50
2023-10-29T22:09:06.476Z,14.50
2023-10-29T22:11:35.239Z,14.50
2023-10-29T22:14:05.272Z,14.50
2023-10-29T22:16:33.653Z,14.50
2023-10-29T22:19:02.099Z,14.50
2023-10-29T22:21:30.459Z,14.50
2023-10-29T22:23:59.404Z,14.40
2023-10-29T22:26:27.893Z,14.20
2023-10-29T22:28:56.828Z,14.10
2023-10-29T22:31:26.529Z,14.10
2023-10-29T22:33:54.982Z,14.00
2023-10-29T22:36:23.386Z,13.90
2023-10-29T22:38:52.053Z,13.90
2023-10-29T22:41:20.900Z,13.90
2023-10-29T22:43:49.819Z,13.90
2023-10-29T22:46:19.541Z,13.90
2023-10-29T22:48:51.125Z,13.90
2023-10-29T22:51:20.498Z,13.90
2023-10-29T22:53:49.208Z,14.00
2023-10-29T22:56:17.799Z,13.90
2023-10-29T22:58:46.225Z,13.80
2023-10-29T23:01:15.031Z,13.80
2023-10-29T23:03:43.815Z,13.90
2023-10-29T23:06:14.220Z,13.90
2023-10-29T23:08:42.653Z,13.90
2023-10-29T23:11:16.420Z,13.90
2023-10-29T23:13:45.568Z,13.90
2023-10-29T23:16:14.924Z,13.90
2023-10-29T23:18:44.334Z,13.90
2023-10-29T23:21:14.196Z,13.80
2023-10-29T23:23:42.892Z,13.70
2023-10-29T23:26:11.653Z,13.60
2023-10-29T23:28:40.041Z,13.40
2023-10-29T23:31:09.843Z,13.30
2023-10-29T23:33:39.532Z,13.30
2023-10-29T23:36:08.999Z,13.30
2023-10-29T23:38:38.890Z,13.40
2023-10-29T23:41:07.546Z,13.50
2023-10-29T23:43:36.036Z,13.50
2023-10-29T23:46:05.086Z,13.50
2023-10-29T23:48:34.340Z,13.50
2023-10-29T23:51:03.273Z,13.30
2023-10-29T23:53:31.886Z,13.30
2023-10-29T23:56:01.548Z,13.30
2023-10-29T23:58:30.064Z,13.40
